Time;durP1;ratioP1;P1;durP2;ratioP2;P2;SDS_P1;SDS_P2;PMS_P1;PMS_P2;Temp;Humidity;BMP_temperature;BMP_pressure;BME280_temperature;BME280_humidity;BME280_pressure;Samples;Min_cycle;Max_cycle;Signal;HPM_P1;HPM_P2
2022/11/03 00:01:58;;;;;;;16.75;5.13;;;;;;;6.31;60.00;101526.81;4974834;28;20043;-72
2022/11/03 00:04:25;;;;;;;21.38;4.63;;;;;;;6.18;60.31;101530.38;4973825;28;20058;-72
2022/11/03 00:06:53;;;;;;;13.32;3.72;;;;;;;6.21;60.47;101527.47;4970594;28;20046;-72
2022/11/03 00:09:21;;;;;;;15.15;4.85;;;;;;;6.20;60.58;101530.25;4969339;28;20116;-72
2022/11/03 00:11:52;;;;;;;14.65;4.95;;;;;;;6.15;60.96;101527.09;4968957;28;20043;-73
2022/11/03 00:14:19;;;;;;;12.35;3.15;;;;;;;6.21;60.61;101527.47;4968822;28;20043;-73
2022/11/03 00:16:45;;;;;;;19.58;4.45;;;;;;;5.94;61.35;101525.00;4967968;28;20053;-73
2022/11/03 00:19:14;;;;;;;20.35;4.70;;;;;;;5.95;61.79;101521.38;4968331;28;20047;-73
2022/11/03 00:21:42;;;;;;;21.17;5.07;;;;;;;6.27;60.68;101518.22;4967566;28;20119;-73
2022/11/03 00:24:09;;;;;;;19.90;5.53;;;;;;;6.20;60.89;101515.09;4969483;28;20058;-73
2022/11/03 00:26:36;;;;;;;12.63;4.20;;;;;;;5.84;62.03;101521.31;4971678;28;20073;-73
2022/11/03 00:29:10;;;;;;;18.52;5.38;;;;;;;5.83;62.19;101516.06;4976412;28;20047;-73
2022/11/03 00:31:39;;;;;;;13.75;4.90;;;;;;;5.81;62.69;101518.84;4972526;28;20046;-73
2022/11/03 00:34:06;;;;;;;14.50;4.95;;;;;;;5.77;62.62;101517.38;4973077;28;20054;-72
2022/11/03 00:36:36;;;;;;;17.10;4.80;;;;;;;5.69;63.00;101512.56;4973803;28;20046;-72
2022/11/03 00:39:04;;;;;;;20.98;4.97;;;;;;;5.69;63.10;101509.91;4973600;28;20055;-73
2022/11/03 00:41:31;;;;;;;24.50;4.93;;;;;;;5.66;63.61;101509.28;4973449;28;20051;-73
2022/11/03 00:43:58;;;;;;;18.63;5.00;;;;;;;5.83;63.06;101505.41;4975568;28;20047;-72
2022/11/03 00:46:25;;;;;;;22.20;4.95;;;;;;;5.71;63.57;101502.69;4978183;28;20057;-72
2022/11/03 00:48:52;;;;;;;18.48;4.93;;;;;;;5.69;63.72;101491.28;4976986;28;20054;-72
2022/11/03 00:51:24;;;;;;;14.55;4.22;;;;;;;5.57;64.40;101494.84;4978461;28;20051;-73
2022/11/03 00:53:51;;;;;;;;;;;;;;;5.56;64.63;101490.47;4978232;28;20051;-73
2022/11/03 00:56:21;;;;;;;15.02;4.45;;;;;;;5.40;64.94;101484.53;5004037;28;19906;-73
2022/11/03 00:58:48;;;;;;;23.35;3.90;;;;;;;4.94;66.44;101501.03;5009504;28;20046;-73
2022/11/03 01:01:18;;;;;;;15.18;3.92;;;;;;;5.37;65.79;101485.59;5016268;28;20046;-72
2022/11/03 01:06:49;;;;;;;19.70;4.75;;;;;;;5.16;66.23;101487.94;5034080;28;20038;-73
2022/11/03 01:09:34;;;;;;;14.65;3.97;;;;;;;5.15;66.42;101488.06;5033077;28;20050;-73
2022/11/03 01:12:02;;;;;;;13.10;4.07;;;;;;;5.06;67.02;101489.53;5032820;28;20042;-73
2022/11/03 01:14:51;;;;;;;16.80;4.22;;;;;;;4.88;67.50;101481.00;5032739;28;20042;-73
2022/11/03 01:17:27;;;;;;;18.67;3.63;;;;;;;4.93;67.50;101483.34;5027414;28;20038;-73
2022/11/03 01:19:54;;;;;;;25.73;4.70;;;;;;;4.95;67.47;101487.59;5032248;28;20045;-72
2022/11/03 01:22:22;;;;;;;11.95;3.53;;;;;;;5.09;67.22;101478.69;5033449;28;20052;-72
2022/11/03 01:24:50;;;;;;;12.10;3.33;;;;;;;5.02;67.18;101483.56;5032521;28;20110;-72
2022/11/03 01:27:19;;;;;;;10.00;3.80;;;;;;;4.95;67.53;101486.75;5031478;28;20046;-73
2022/11/03 01:29:45;;;;;;;14.13;3.65;;;;;;;4.90;67.96;101481.78;5031620;28;20042;-73
2022/11/03 01:32:12;;;;;;;15.85;3.38;;;;;;;4.97;67.71;101476.84;5030243;28;20057;-73
2022/11/03 01:34:39;;;;;;;16.23;3.95;;;;;;;4.89;67.82;101481.84;5029959;28;20050;-73
2022/11/03 01:37:06;;;;;;;19.42;3.92;;;;;;;5.14;66.92;101481.00;5030125;28;20046;-72
2022/11/03 01:39:32;;;;;;;21.27;3.83;;;;;;;4.94;67.68;101482.41;5031122;28;20057;-73
2022/11/03 01:41:58;;;;;;;18.45;4.30;;;;;;;4.71;68.17;101471.50;5030987;28;20046;-73
2022/11/03 01:44:34;;;;;;;19.27;4.10;;;;;;;4.93;67.60;101476.22;5028539;28;20053;-70
2022/11/03 01:47:12;;;;;;;23.77;3.88;;;;;;;4.67;68.08;101471.84;5030215;28;20053;-73
2022/11/03 01:49:50;;;;;;;18.73;4.13;;;;;;;4.92;67.70;101471.84;5030271;28;20046;-73
2022/11/03 01:52:38;;;;;;;14.90;3.55;;;;;;;4.76;67.91;101473.84;5030885;28;20042;-73
2022/11/03 01:55:18;;;;;;;24.02;4.90;;;;;;;4.68;68.07;101478.84;5031596;28;20050;-73
2022/11/03 01:57:49;;;;;;;13.63;3.30;;;;;;;4.71;68.20;101479.50;5032779;28;20053;-72
2022/11/03 02:00:15;;;;;;;14.32;2.97;;;;;;;4.47;68.84;101475.81;5032333;28;20046;-72
2022/11/03 02:02:42;;;;;;;13.27;3.03;;;;;;;4.64;68.28;101467.56;5033025;28;20038;-72
2022/11/03 02:08:55;;;;;;;11.50;3.42;;;;;;;4.45;69.46;101456.47;5018505;28;20072;-72
2022/11/03 02:14:13;;;;;;;16.65;3.95;;;;;;;4.61;69.01;101453.63;5029152;28;20397;-72
2022/11/03 02:16:44;;;;;;;14.95;4.53;;;;;;;4.20;70.08;101446.59;5030213;28;20052;-72
2022/11/03 02:19:22;;;;;;;16.33;3.45;;;;;;;4.20;70.22;101442.13;5029021;28;20049;-70
2022/11/03 02:22:10;;;;;;;22.10;4.45;;;;;;;4.15;70.22;101443.41;5029113;28;20118;-72
2022/11/03 02:24:50;;;;;;;21.42;4.32;;;;;;;3.75;72.21;101430.88;5025725;28;20046;-72
2022/11/03 02:27:20;;;;;;;11.70;3.75;;;;;;;4.19;70.47;101440.44;5028864;28;20046;-73
2022/11/03 02:29:47;;;;;;;15.48;4.55;;;;;;;4.01;70.75;101436.34;5027666;28;20049;-72
2022/11/03 02:32:22;;;;;;;13.77;3.50;;;;;;;4.31;69.91;101444.94;5025951;28;20072;-72
2022/11/03 02:35:09;;;;;;;12.63;3.75;;;;;;;4.26;69.88;101447.03;5025445;28;20042;-72
2022/11/03 02:37:41;;;;;;;13.82;3.67;;;;;;;4.07;70.38;101443.88;5021474;28;20046;-72
2022/11/03 02:40:34;;;;;;;15.23;3.97;;;;;;;4.19;69.95;101451.06;5021720;28;20069;-72
2022/11/03 02:43:02;;;;;;;13.68;3.17;;;;;;;4.25;69.53;101440.03;5022283;28;20049;-73
2022/11/03 02:45:30;;;;;;;14.38;3.40;;;;;;;4.15;69.97;101440.75;5019898;28;20073;-71
2022/11/03 02:47:59;;;;;;;16.52;3.20;;;;;;;4.36;69.17;101438.47;5017761;28;20050;-72
2022/11/03 02:50:28;;;;;;;16.02;3.88;;;;;;;4.41;69.21;101429.25;5015163;28;20057;-72
2022/11/03 02:52:55;;;;;;;12.02;3.35;;;;;;;4.41;68.61;101423.94;5015151;28;20153;-72
2022/11/03 02:55:30;;;;;;;10.95;3.33;;;;;;;4.45;68.38;101432.53;5009748;28;20054;-73
2022/11/03 02:58:19;;;;;;;15.60;3.85;;;;;;;4.45;68.50;101417.47;4996592;28;20050;-73
2022/11/03 03:00:54;;;;;;;19.50;4.07;;;;;;;4.31;69.13;101421.03;4996951;28;20042;-72
2022/11/03 03:03:27;;;;;;;18.08;4.40;;;;;;;4.29;69.04;101409.66;4998955;28;20042;-73
2022/11/03 03:05:59;;;;;;;16.88;3.85;;;;;;;4.42;68.46;101408.88;4998983;28;20042;-73
2022/11/03 03:08:26;;;;;;;18.65;4.00;;;;;;;4.45;68.51;101414.81;4998543;28;20053;-73
2022/11/03 03:10:54;;;;;;;14.88;3.65;;;;;;;4.19;69.19;101402.41;4997585;28;20050;-73
2022/11/03 03:13:22;;;;;;;15.90;3.58;;;;;;;4.32;68.91;101404.13;4994595;28;20054;-72
2022/11/03 03:16:28;;;;;;;15.93;3.53;;;;;;;4.21;69.09;101396.03;4995245;28;20053;-73
2022/11/03 03:19:14;;;;;;;12.27;3.47;;;;;;;4.38;68.85;101402.03;4995627;28;20054;-73
2022/11/03 03:21:45;;;;;;;16.83;3.95;;;;;;;4.36;68.77;101401.28;4995708;28;20096;-73
2022/11/03 03:24:24;;;;;;;12.80;3.60;;;;;;;4.45;68.58;101405.97;4995748;28;20053;-73
2022/11/03 03:26:53;;;;;;;11.00;3.53;;;;;;;4.46;68.25;101402.38;4996191;28;20430;-73
2022/11/03 03:29:25;;;;;;;18.95;3.70;;;;;;;4.28;68.73;101397.34;4994903;28;20050;-73
2022/11/03 03:31:58;;;;;;;15.27;3.40;;;;;;;4.42;68.41;101398.25;4993779;28;20046;-73
2022/11/03 03:34:26;;;;;;;12.43;3.08;;;;;;;4.45;67.98;101398.88;4996008;28;20050;-73
2022/11/03 03:37:04;;;;;;;13.82;3.42;;;;;;;4.46;68.16;101400.59;4995114;28;20466;-73
2022/11/03 03:39:36;;;;;;;18.98;3.63;;;;;;;4.49;68.17;101387.09;4994635;28;20057;-73
2022/11/03 03:42:05;;;;;;;13.10;3.33;;;;;;;4.39;68.59;101393.13;4994758;28;20049;-73
2022/11/03 03:44:33;;;;;;;22.33;4.03;;;;;;;4.36;68.67;101388.00;4992884;28;20050;-73
2022/11/03 03:47:12;;;;;;;11.70;3.38;;;;;;;4.59;67.95;101384.66;4994890;28;20046;-73
2022/11/03 03:49:38;;;;;;;12.02;3.22;;;;;;;4.68;67.61;101381.34;4995077;28;20050;-73
2022/11/03 03:52:08;;;;;;;18.45;3.85;;;;;;;4.68;67.19;101378.69;4980120;28;21494;-73
2022/11/03 03:54:35;;;;;;;20.30;3.53;;;;;;;4.66;67.68;101385.94;4997772;28;20061;-73
2022/11/03 03:57:05;;;;;;;21.98;3.95;;;;;;;4.68;67.75;101385.81;4996167;28;20057;-73
2022/11/03 03:59:32;;;;;;;15.82;3.30;;;;;;;4.60;67.71;101389.00;4996952;28;20061;-73
2022/11/03 04:01:58;;;;;;;19.25;3.25;;;;;;;4.56;68.14;101384.88;4994879;28;20042;-73
2022/11/03 04:04:25;;;;;;;10.77;3.28;;;;;;;4.35;68.78;101381.84;4994268;28;20057;-72
2022/11/03 04:07:45;;;;;;;12.35;3.10;;;;;;;4.42;68.27;101392.94;4995890;28;20053;-72
2022/11/03 04:09:38;;;;;;;9.70;3.20;;;;;;;4.44;68.44;101380.38;4994896;28;20050;-73
2022/11/03 04:23:09;;;;;;;15.13;3.67;;;;;;;4.38;68.93;101375.47;4994638;28;20058;-71
2022/11/03 04:25:36;;;;;;;18.60;3.17;;;;;;;4.20;69.37;101377.53;4994784;28;20523;-72
2022/11/03 04:28:13;;;;;;;10.65;3.28;;;;;;;3.98;69.92;101373.66;4993661;28;20417;-73
2022/11/03 04:30:40;;;;;;;14.50;3.38;;;;;;;3.71;71.29;101371.00;4994597;28;20050;-72
2022/11/03 04:33:14;;;;;;;14.25;2.92;;;;;;;3.70;70.63;101371.97;4994606;28;20058;-72
2022/11/03 04:35:45;;;;;;;15.75;3.25;;;;;;;3.82;70.62;101371.16;4994044;28;20053;-72
2022/11/03 04:38:15;;;;;;;14.70;3.30;;;;;;;4.00;70.41;101368.25;4993988;28;20054;-72
2022/11/03 04:40:44;;;;;;;12.20;3.40;;;;;;;3.99;70.20;101364.72;4992919;28;20073;-72
2022/11/03 04:43:18;;;;;;;16.10;3.15;;;;;;;3.71;70.99;101360.41;4991423;28;20081;-72
2022/11/03 04:45:46;;;;;;;17.27;3.17;;;;;;;3.63;71.51;101360.06;4992103;28;20490;-72
2022/11/03 04:48:23;;;;;;;16.05;3.35;;;;;;;3.91;70.72;101353.78;4992768;28;20042;-72
2022/11/03 04:50:54;;;;;;;14.85;3.97;;;;;;;3.66;71.05;101351.91;4992553;28;20038;-72
2022/11/03 04:53:22;;;;;;;16.85;3.70;;;;;;;3.73;71.72;101347.03;4992004;28;20050;-71
2022/11/03 04:55:52;;;;;;;17.20;4.63;;;;;;;3.55;72.37;101342.00;5001934;28;20075;-73
2022/11/03 04:58:22;;;;;;;15.65;3.90;;;;;;;3.70;71.81;101342.78;5013073;28;20497;-72
2022/11/03 05:00:52;;;;;;;12.27;3.58;;;;;;;3.82;71.59;101341.97;5012105;28;20046;-72
2022/11/03 05:03:28;;;;;;;14.13;4.18;;;;;;;3.82;71.02;101344.59;5012716;28;20520;-71
2022/11/03 05:05:55;;;;;;;14.88;3.63;;;;;;;3.68;71.52;101339.38;5012224;28;20050;-72
2022/11/03 05:08:23;;;;;;;15.57;4.60;;;;;;;3.92;71.73;101342.19;5012236;28;20050;-72
2022/11/03 05:10:49;;;;;;;21.88;5.25;;;;;;;3.71;71.54;101339.16;5010832;28;20046;-70
2022/11/03 05:13:26;;;;;;;27.08;4.53;;;;;;;3.90;70.89;101333.50;5012836;28;20433;-72
2022/11/03 05:16:00;;;;;;;18.83;5.10;;;;;;;3.76;71.18;101329.13;5009943;28;20046;-72
2022/11/03 05:18:34;;;;;;;18.58;5.07;;;;;;;3.74;71.63;101325.69;5012125;28;20054;-70
2022/11/03 05:21:03;;;;;;;23.23;4.95;;;;;;;3.85;71.12;101319.69;5009887;28;20046;-72
2022/11/03 05:23:43;;;;;;;16.63;5.22;;;;;;;3.41;72.40;101319.94;5009948;28;20513;-72
2022/11/03 05:26:24;;;;;;;20.75;5.25;;;;;;;3.41;72.56;101319.94;5010837;28;20054;-72
2022/11/03 05:28:58;;;;;;;15.80;3.95;;;;;;;3.51;72.81;101310.44;5010439;28;20050;-72
2022/11/03 05:31:27;;;;;;;19.02;4.85;;;;;;;3.53;72.15;101303.22;5013468;28;20134;-72
2022/11/03 05:34:14;;;;;;;17.02;5.18;;;;;;;3.42;72.66;101303.09;5013347;28;20057;-72
2022/11/03 05:36:41;;;;;;;17.50;5.63;;;;;;;3.31;72.61;101301.13;5014315;28;20053;-72
2022/11/03 05:39:35;;;;;;;16.70;5.65;;;;;;;3.30;73.48;101305.56;5013247;28;20057;-72
2022/11/03 05:42:19;;;;;;;16.73;4.97;;;;;;;3.17;73.77;101294.06;5013420;28;20053;-72
2022/11/03 05:44:45;;;;;;;18.25;5.43;;;;;;;3.23;73.64;101292.81;5013383;28;20045;-72
2022/11/03 05:47:26;;;;;;;19.70;5.85;;;;;;;3.17;74.06;101288.75;5011524;28;20524;-72
2022/11/03 05:50:06;;;;;;;17.40;5.83;;;;;;;3.62;72.59;101300.00;5013210;28;20041;-72
2022/11/03 05:52:33;;;;;;;16.13;5.30;;;;;;;3.79;71.85;101294.41;5012157;28;20073;-72
2022/11/03 05:55:01;;;;;;;19.65;5.28;;;;;;;3.83;71.38;101284.44;5009550;28;20058;-72
2022/11/03 05:57:29;;;;;;;22.52;5.70;;;;;;;3.76;71.23;101286.66;4993189;28;20426;-72
2022/11/03 05:59:55;;;;;;;16.50;6.60;;;;;;;3.37;72.60;101293.59;4993048;28;20050;-72
2022/11/03 06:02:28;;;;;;;17.90;6.18;;;;;;;3.11;73.76;101283.84;4976498;28;20069;-72
2022/11/03 06:04:54;;;;;;;21.30;5.82;;;;;;;3.09;72.96;101280.44;4993995;28;20043;-72
2022/11/03 06:07:28;;;;;;;36.78;6.78;;;;;;;3.28;73.90;101286.25;4993563;28;20050;-72
2022/11/03 06:09:54;;;;;;;18.58;6.63;;;;;;;3.69;72.20;101297.75;4994146;28;20457;-72
2022/11/03 06:12:22;;;;;;;18.27;6.78;;;;;;;3.85;71.25;101291.31;4993611;28;20461;-71
2022/11/03 06:14:50;;;;;;;21.27;6.68;;;;;;;3.99;70.64;101301.00;4994193;28;20053;-70
2022/11/03 06:17:25;;;;;;;27.00;6.03;;;;;;;3.96;70.58;101290.59;4993894;28;20054;-72
2022/11/03 06:19:55;;;;;;;17.42;6.13;;;;;;;4.27;69.87;101288.53;4993117;28;20122;-71
2022/11/03 06:22:25;;;;;;;26.55;6.90;;;;;;;4.09;69.70;101295.94;4991832;28;20426;-72
2022/11/03 06:24:56;;;;;;;17.48;6.22;;;;;;;4.32;69.14;101292.56;4992590;28;20493;-72
2022/11/03 06:27:25;;;;;;;23.67;8.18;;;;;;;4.42;68.64;101292.81;4991698;28;20058;-72
2022/11/03 06:29:56;;;;;;;21.75;7.22;;;;;;;4.37;69.06;101294.91;4992503;28;20391;-72
2022/11/03 06:32:22;;;;;;;31.10;11.32;;;;;;;4.53;68.18;101298.22;4987708;28;20055;-72
2022/11/03 06:34:52;;;;;;;26.90;9.85;;;;;;;4.50;68.04;101298.44;4990078;28;20054;-72
2022/11/03 06:37:23;;;;;;;20.20;6.80;;;;;;;4.40;68.65;101293.88;4992768;28;20413;-72
2022/11/03 06:39:52;;;;;;;28.15;6.60;;;;;;;4.50;68.11;101295.78;4992427;28;20047;-72
2022/11/03 06:42:21;;;;;;;21.48;6.10;;;;;;;4.48;68.37;101288.88;4992459;28;20069;-73
2022/11/03 06:44:50;;;;;;;21.70;4.95;;;;;;;4.46;68.12;101282.84;4992387;28;20092;-70
2022/11/03 06:47:28;;;;;;;16.65;6.22;;;;;;;4.29;68.39;101287.47;4991969;28;20054;-72
2022/11/03 06:49:56;;;;;;;14.50;6.57;;;;;;;4.60;67.68;101280.06;4991714;28;20402;-73
2022/11/03 06:52:30;;;;;;;23.15;6.72;;;;;;;4.61;67.38;101273.78;4991503;28;20042;-72
2022/11/03 06:55:08;;;;;;;17.25;6.32;;;;;;;4.45;67.73;101266.03;4994215;28;20057;-72
2022/11/03 06:57:45;;;;;;;23.20;6.55;;;;;;;4.52;67.80;101272.63;5012075;28;20512;-72
2022/11/03 07:00:24;;;;;;;23.20;6.75;;;;;;;4.10;68.52;101260.47;5007728;28;20540;-71
2022/11/03 07:03:36;;;;;;;26.83;5.70;;;;;;;4.14;69.11;101256.66;5011274;28;20107;-73
2022/11/03 07:06:08;;;;;;;26.83;5.75;;;;;;;3.44;70.49;101256.06;5011303;28;20528;-72
2022/11/03 07:08:43;;;;;;;27.63;5.88;;;;;;;4.15;69.39;101265.47;5012163;28;20046;-72
2022/11/03 07:11:16;;;;;;;26.63;6.18;;;;;;;3.99;68.85;101257.69;5010343;28;20648;-72
2022/11/03 07:13:45;;;;;;;21.85;5.82;;;;;;;3.96;69.67;101260.56;5011680;28;20433;-73
2022/11/03 07:16:36;;;;;;;24.73;5.43;;;;;;;4.01;69.67;101267.25;5011102;28;20056;-71
2022/11/03 07:19:09;;;;;;;26.15;5.57;;;;;;;4.23;69.61;101265.78;5010444;28;20048;-72
2022/11/03 07:21:54;;;;;;;16.70;5.22;;;;;;;3.88;70.55;101263.72;5011345;28;20046;-73
2022/11/03 07:24:24;;;;;;;40.50;6.90;;;;;;;4.29;69.53;101265.38;5010861;28;20056;-72
2022/11/03 07:26:58;;;;;;;26.13;5.63;;;;;;;3.91;70.08;101257.38;5010757;28;20402;-72
2022/11/03 07:29:27;;;;;;;19.92;5.30;;;;;;;4.23;69.26;101258.66;5011251;28;20042;-71
2022/11/03 07:31:57;;;;;;;21.52;5.90;;;;;;;3.58;71.51;101269.28;5010963;28;20042;-73
2022/11/03 07:34:28;;;;;;;23.17;6.15;;;;;;;4.24;69.91;101263.03;5011127;28;20052;-72
2022/11/03 07:36:56;;;;;;;20.15;6.10;;;;;;;4.28;69.13;101259.22;5000211;28;20041;-72
2022/11/03 07:39:35;;;;;;;17.58;5.50;;;;;;;4.60;68.36;101264.09;5010336;28;20064;-70
2022/11/03 07:42:10;;;;;;;19.83;5.18;;;;;;;4.68;68.06;101259.09;5009900;28;20049;-72
2022/11/03 07:44:37;;;;;;;13.98;5.43;;;;;;;4.69;67.54;101254.63;5010327;28;20060;-72
2022/11/03 07:47:11;;;;;;;20.92;5.40;;;;;;;4.76;67.69;101264.72;4991451;28;20041;-72
2022/11/03 07:49:40;;;;;;;17.23;5.07;;;;;;;4.97;66.91;101250.84;5010468;28;20045;-73
2022/11/03 07:52:13;;;;;;;25.42;4.40;;;;;;;5.10;66.53;101246.31;5009618;28;20077;-73
2022/11/03 07:54:39;;;;;;;21.30;5.63;;;;;;;5.18;66.32;101246.63;5010097;28;20049;-73
2022/11/03 07:57:25;;;;;;;20.80;4.72;;;;;;;5.22;66.21;101242.78;4991020;28;20049;-73
2022/11/03 07:59:57;;;;;;;25.25;5.03;;;;;;;5.41;65.76;101238.75;4990570;28;20050;-72
2022/11/03 08:02:40;;;;;;;19.33;4.90;;;;;;;5.22;65.98;101233.97;4991685;28;20046;-72
2022/11/03 08:05:07;;;;;;;25.08;5.20;;;;;;;5.39;65.82;101232.72;4990791;28;20395;-73
2022/11/03 08:07:34;;;;;;;11.02;4.07;;;;;;;5.46;65.37;101228.63;4990591;28;20057;-73
2022/11/03 08:10:00;;;;;;;20.08;4.60;;;;;;;4.70;66.77;101230.59;4989907;28;20057;-73
2022/11/03 08:12:27;;;;;;;25.77;4.95;;;;;;;5.34;66.08;101222.41;4990727;28;20061;-73
2022/11/03 08:14:53;;;;;;;15.35;3.65;;;;;;;5.58;65.01;101224.19;4991653;28;20042;-73
2022/11/03 08:17:20;;;;;;;12.55;4.20;;;;;;;5.32;65.90;101215.47;4992096;28;20418;-73
2022/11/03 08:19:46;;;;;;;14.27;3.75;;;;;;;5.19;66.40;101221.72;4991908;28;20053;-73
2022/11/03 08:22:12;;;;;;;21.83;4.80;;;;;;;6.14;63.43;101211.84;4991164;28;20383;-73
2022/11/03 08:24:39;;;;;;;13.68;4.22;;;;;;;5.88;63.94;101205.03;4990140;28;20490;-73
2022/11/03 08:27:06;;;;;;;16.67;4.45;;;;;;;5.52;64.40;101201.53;4991152;28;20042;-73
2022/11/03 08:29:32;;;;;;;20.58;4.93;;;;;;;5.52;64.39;101191.75;4991025;28;20140;-72
2022/11/03 08:31:59;;;;;;;19.58;4.22;;;;;;;5.47;64.70;101185.09;4991490;28;20046;-73
2022/11/03 08:34:25;;;;;;;15.95;4.40;;;;;;;5.72;63.82;101194.72;4991380;28;20053;-73
2022/11/03 08:36:52;;;;;;;15.00;4.25;;;;;;;5.68;63.93;101186.09;4991144;28;20050;-72
2022/11/03 08:39:18;;;;;;;14.32;3.72;;;;;;;6.29;62.41;101180.53;4991642;28;20047;-73
2022/11/03 08:41:44;;;;;;;23.92;3.97;;;;;;;6.11;62.09;101173.94;4991512;28;20045;-73
2022/11/03 08:44:11;;;;;;;16.13;3.65;;;;;;;6.54;61.18;101183.94;4991155;28;20072;-73
2022/11/03 08:46:37;;;;;;;18.85;3.97;;;;;;;6.77;60.48;101166.06;4991424;28;20052;-73
2022/11/03 08:49:04;;;;;;;17.25;3.50;;;;;;;6.86;59.91;101167.97;4995151;28;20043;-73
2022/11/03 08:51:30;;;;;;;17.63;3.90;;;;;;;6.67;60.12;101157.97;5002805;28;20046;-73
2022/11/03 08:53:57;;;;;;;17.35;4.38;;;;;;;6.95;59.75;101165.41;4996436;28;20057;-73
2022/11/03 08:56:23;;;;;;;17.33;3.45;;;;;;;7.15;58.93;101157.56;5012426;28;20096;-73
2022/11/03 08:58:50;;;;;;;13.77;3.78;;;;;;;7.17;59.01;101155.63;5017286;28;20050;-73
2022/11/03 09:01:17;;;;;;;23.45;4.32;;;;;;;7.38;58.51;101150.31;5019778;28;20068;-74
2022/11/03 09:03:43;;;;;;;22.65;3.53;;;;;;;7.27;58.22;101142.38;5022450;28;20052;-74
2022/11/03 09:06:10;;;;;;;20.27;3.78;;;;;;;7.54;57.80;101148.06;5021702;28;20045;-74
2022/11/03 09:08:37;;;;;;;11.70;2.75;;;;;;;7.34;57.84;101146.22;5020505;28;20049;-74
2022/11/03 09:11:23;;;;;;;11.63;2.72;;;;;;;7.50;57.98;101135.09;5012035;28;20116;-71
2022/11/03 09:13:50;;;;;;;15.75;3.90;;;;;;;7.24;58.63;101138.13;5021303;28;20046;-74
2022/11/03 09:16:16;;;;;;;13.10;2.88;;;;;;;7.84;57.04;101127.75;5022165;28;20042;-74
2022/11/03 09:18:44;;;;;;;16.00;3.60;;;;;;;8.46;55.75;101116.03;5018536;28;20132;-73
2022/11/03 09:21:10;;;;;;;16.38;3.83;;;;;;;8.57;54.79;101117.75;5017400;28;20049;-74
2022/11/03 09:23:37;;;;;;;14.80;3.08;;;;;;;8.54;54.87;101118.88;5018518;28;20528;-74
2022/11/03 09:26:05;;;;;;;14.35;3.38;;;;;;;8.78;54.15;101109.59;5019089;28;20053;-73
2022/11/03 09:28:31;;;;;;;16.23;4.13;;;;;;;9.09;53.41;101113.88;5019863;28;20048;-73
2022/11/03 09:30:58;;;;;;;12.63;3.47;;;;;;;9.22;53.37;101097.50;5020662;28;20050;-76
2022/11/03 09:33:24;;;;;;;15.43;3.25;;;;;;;9.22;52.85;101102.03;5020227;28;20046;-73
2022/11/03 09:35:51;;;;;;;12.35;2.92;;;;;;;9.51;51.98;101092.16;5023015;28;20042;-73
2022/11/03 09:38:17;;;;;;;12.75;3.40;;;;;;;9.78;51.53;101088.69;5020352;28;20046;-74
2022/11/03 09:40:44;;;;;;;21.10;3.75;;;;;;;10.28;49.81;101093.69;5021862;28;20049;-74
2022/11/03 09:43:11;;;;;;;11.55;3.20;;;;;;;9.35;51.77;101083.88;5020544;28;20061;-74
2022/11/03 09:45:38;;;;;;;13.63;2.50;;;;;;;9.69;50.67;101083.38;5017402;28;20061;-73
2022/11/03 09:48:11;;;;;;;10.50;3.40;;;;;;;10.44;48.84;101085.00;5018894;28;20077;-74
2022/11/03 09:50:38;;;;;;;9.23;3.10;;;;;;;10.41;48.71;101088.00;5021880;28;20477;-74
2022/11/03 09:53:05;;;;;;;14.85;3.08;;;;;;;10.38;49.44;101082.94;5020337;28;20056;-74
2022/11/03 09:55:32;;;;;;;9.55;3.05;;;;;;;9.97;49.60;101078.91;5011415;28;20129;-72
2022/11/03 09:58:11;;;;;;;9.77;2.40;;;;;;;10.17;49.26;101082.34;4992706;28;20050;-74
2022/11/03 10:00:38;;;;;;;12.15;2.95;;;;;;;10.28;48.77;101053.47;5001352;28;20054;-72
2022/11/03 10:03:05;;;;;;;13.95;2.90;;;;;;;10.58;48.57;101070.28;5003035;28;20046;-74
2022/11/03 10:05:32;;;;;;;14.23;2.58;;;;;;;10.69;48.25;101062.00;5004836;28;20042;-72
2022/11/03 10:08:05;;;;;;;8.90;2.55;;;;;;;10.55;48.09;101053.59;5000810;28;20054;-74
2022/11/03 10:10:33;;;;;;;12.52;2.90;;;;;;;10.69;48.49;101058.47;5000183;28;20501;-74
2022/11/03 10:13:00;;;;;;;13.15;2.63;;;;;;;10.42;49.06;101051.28;5000422;28;20047;-74
2022/11/03 10:15:27;;;;;;;12.07;3.25;;;;;;;10.34;48.72;101041.31;5001750;28;20050;-74
2022/11/03 10:17:54;;;;;;;12.18;3.13;;;;;;;10.60;48.72;101040.59;5003522;28;20051;-74
2022/11/03 10:20:21;;;;;;;9.65;2.70;;;;;;;10.59;48.74;101033.56;4999753;28;20554;-74
2022/11/03 10:22:53;;;;;;;9.98;2.80;;;;;;;10.53;48.91;101034.16;4999641;28;20163;-72
2022/11/03 10:25:35;;;;;;;12.93;2.92;;;;;;;10.28;49.70;101032.03;5004202;28;20050;-74
2022/11/03 10:28:12;;;;;;;10.15;2.20;;;;;;;9.96;50.50;101019.09;5001143;28;20046;-72
2022/11/03 10:30:57;;;;;;;12.20;2.58;;;;;;;10.00;50.55;101020.47;4997207;28;20057;-74
2022/11/03 10:34:00;;;;;;;18.92;3.03;;;;;;;9.72;51.12;101013.44;5000671;28;20042;-73
2022/11/03 10:36:29;;;;;;;18.15;4.35;;;;;;;10.13;50.63;101013.91;4999602;28;20042;-74
2022/11/03 10:38:56;;;;;;;10.75;2.75;;;;;;;10.11;50.53;101007.88;5000939;28;20050;-73
2022/11/03 10:41:28;;;;;;;11.02;2.95;;;;;;;9.35;52.73;101002.69;4998359;28;20108;-73
2022/11/03 10:44:09;;;;;;;10.80;2.60;;;;;;;9.99;51.40;101002.72;4995933;28;20042;-73
2022/11/03 10:46:37;;;;;;;10.85;3.42;;;;;;;10.15;51.16;100998.53;4980520;28;20053;-73
2022/11/03 10:49:18;;;;;;;14.32;2.72;;;;;;;9.94;51.34;100991.59;4997018;28;20105;-74
2022/11/03 10:51:48;;;;;;;12.80;2.70;;;;;;;9.79;51.63;100987.72;4998992;28;20047;-74
2022/11/03 10:54:16;;;;;;;12.20;3.42;;;;;;;9.77;52.29;100976.31;4998008;28;20069;-73
2022/11/03 10:56:44;;;;;;;12.32;2.80;;;;;;;10.02;51.71;100980.94;5012796;28;20050;-73
2022/11/03 10:59:18;;;;;;;16.50;3.03;;;;;;;9.46;52.75;100976.56;5016270;28;20049;-74
2022/11/03 11:01:45;;;;;;;13.85;3.20;;;;;;;9.12;54.08;100962.84;5017452;28;20046;-74
2022/11/03 11:04:19;;;;;;;10.63;3.25;;;;;;;9.26;53.59;100965.09;5029413;28;20056;-74
2022/11/03 11:06:46;;;;;;;17.40;2.28;;;;;;;9.70;52.66;100964.50;5021817;28;20045;-73
2022/11/03 11:09:19;;;;;;;10.57;2.60;;;;;;;9.24;53.76;100955.53;5017512;28;20062;-73
2022/11/03 11:12:04;;;;;;;13.80;3.60;;;;;;;9.09;54.23;100947.06;5016612;28;20054;-73
2022/11/03 11:14:33;;;;;;;12.75;3.00;;;;;;;9.51;53.30;100950.22;5017823;28;20042;-73
2022/11/03 11:17:00;;;;;;;15.00;2.75;;;;;;;9.28;54.08;100944.38;5015085;28;20045;-73
2022/11/03 11:19:28;;;;;;;8.82;2.60;;;;;;;9.46;53.91;100940.94;5015462;28;20470;-73
2022/11/03 11:21:55;;;;;;;16.83;3.58;;;;;;;9.67;53.35;100943.34;5015117;28;20048;-73
2022/11/03 11:24:43;;;;;;;12.32;2.28;;;;;;;9.69;52.71;100934.19;5014169;28;20096;-73
2022/11/03 11:27:31;;;;;;;9.38;2.53;;;;;;;9.38;53.38;100928.28;5015005;28;20054;-73
2022/11/03 11:29:59;;;;;;;14.45;2.95;;;;;;;9.33;53.20;100927.84;5013886;28;20045;-74
2022/11/03 11:32:40;;;;;;;14.82;2.70;;;;;;;9.14;53.28;100918.06;5020156;28;20060;-74
2022/11/03 11:35:14;;;;;;;11.32;2.35;;;;;;;9.54;52.54;100919.59;5011164;28;20053;-73
2022/11/03 11:37:42;;;;;;;10.73;2.78;;;;;;;9.18;53.64;100914.09;5015149;28;20050;-72
2022/11/03 11:40:27;;;;;;;17.45;3.05;;;;;;;9.30;53.19;100904.91;5015636;28;20045;-73
2022/11/03 11:43:00;;;;;;;11.15;2.50;;;;;;;9.39;52.80;100905.84;5012918;28;20054;-72
2022/11/03 11:46:03;;;;;;;7.68;2.30;;;;;;;9.45;52.71;100905.28;5011402;28;20041;-72
2022/11/03 11:48:30;;;;;;;11.02;2.80;;;;;;;9.61;52.36;100891.22;5009661;28;20046;-73
2022/11/03 11:50:58;;;;;;;11.25;3.00;;;;;;;9.18;53.09;100889.16;5012462;28;20046;-74
2022/11/03 11:53:25;;;;;;;13.70;3.10;;;;;;;9.71;52.49;100886.66;5012758;28;20054;-72
2022/11/03 11:56:00;;;;;;;11.90;2.78;;;;;;;9.97;51.57;100881.41;5001636;28;20058;-73
2022/11/03 11:58:49;;;;;;;16.27;2.80;;;;;;;9.91;51.53;100879.31;4993272;28;20082;-73
2022/11/03 12:01:18;;;;;;;12.60;3.30;;;;;;;9.98;51.39;100875.03;4992118;28;20414;-73
2022/11/03 12:03:45;;;;;;;11.63;3.03;;;;;;;9.34;52.33;100876.03;4992975;28;20046;-72
2022/11/03 12:06:13;;;;;;;14.90;3.33;;;;;;;9.28;53.27;100872.09;4994048;28;20056;-74